Latest Weather Observations for Grove

IDT60801

Issued at 7:33 pm EDT Friday 6 March 2015 (issued every 30 minutes, with the page automatically refreshed every 10 minutes)

About weather observations | Map of weather stations | Latest weather observations for TAS | Other Formats
Station Details ID: 094220 Name: GROVE (RESEARCH STATION) Lat: -42.99 Lon: 147.07 Height: 65.0 m
Data from the previous 72 hours. | See also: Recent months at Grove
Date/Time
EDT
Temp
°C
App
Temp
°C
Dew
Point
Rel
Hum
%
Delta-T
°C
Wind Press
QNH
hPa
Press
MSL
hPa
Rain
since 9 am
mm
Dir
 
Spd
km/h
Gust
km/h
Spd
kts
Gust
kts
06/07:30pm 12.2 8.9 2.6 52 4.2 SW 9 17 5 9 - - 0.0
06/07:00pm 13.2 9.4 1.9 46 4.9 WSW 11 19 6 10 - - 0.0
06/06:30pm 13.8 10.2 3.1 48 4.8 SW 11 19 6 10 - - 0.0
06/06:00pm 14.4 10.4 2.8 45 5.2 SW 13 24 7 13 - - 0.0
06/05:30pm 14.3 9.1 2.3 44 5.3 WSW 19 26 10 14 - - 0.0
06/05:00pm 14.4 9.6 2.5 44 5.3 SW 17 30 9 16 - - 0.0
06/04:30pm 14.7 9.8 2.3 43 5.5 SW 17 32 9 17 - - 0.0
06/04:00pm 14.4 9.1 1.9 42 5.5 WSW 19 35 10 19 - - 0.0
06/03:30pm 13.4 6.9 0.6 41 5.4 SW 24 37 13 20 - - 0.0
06/03:00pm 14.1 8.7 2.3 45 5.2 W 20 39 11 21 - - 0.0
06/02:30pm 14.9 8.8 2.9 44 5.4 WSW 24 37 13 20 - - 0.0
06/02:00pm 14.0 8.3 2.8 47 5.0 WSW 22 33 12 18 - - 0.0
06/01:30pm 12.9 8.1 2.4 49 4.6 WSW 17 28 9 15 - - 0.0
06/01:00pm 13.1 7.4 3.0 50 4.5 W 22 37 12 20 - - 0.0
06/12:30pm 12.3 6.3 3.6 55 3.9 WSW 24 37 13 20 - - 0.0
06/12:14pm 12.7 6.0 3.6 54 4.1 WSW 28 46 15 25 - - 0.0
06/12:00pm 12.4 6.6 4.3 57 3.7 WSW 24 37 13 20 - - 0.0
06/11:30am 12.7 7.5 3.6 54 4.1 SW 20 39 11 21 - - 0.0
06/11:00am 11.7 5.8 3.9 59 3.5 W 24 37 13 20 - - 0.0
06/10:30am 10.8 4.9 3.8 62 3.1 WSW 24 39 13 21 - - 0.0
06/10:00am 10.9 5.6 2.8 57 3.5 W 20 35 11 19 - - 0.0
06/09:30am 11.1 5.6 2.0 53 3.9 WSW 20 32 11 17 - - 0.0
06/09:00am 10.9 4.7 2.3 55 3.7 W 24 41 13 22 - - 1.2
06/08:30am 10.5 4.0 2.6 58 3.4 W 26 43 14 23 - - 1.2
06/08:00am 10.4 5.9 4.4 66 2.7 WSW 17 26 9 14 - - 1.2
06/07:30am 9.5 5.2 5.3 75 1.9 WSW 17 28 9 15 - - 1.2
06/07:00am 9.5 4.8 5.3 75 1.9 WSW 19 30 10 16 - - 1.2
06/06:38am 10.2 3.8 5.4 72 2.2 SW 28 46 15 25 - - 1.2
06/06:30am 10.5 3.2 4.7 67 2.6 WSW 32 46 17 25 - - 1.2
06/06:08am 11.4 4.9 4.6 63 3.1 WSW 28 50 15 27 - - 1.2
06/06:00am 10.9 6.4 6.9 76 1.9 W 20 50 11 27 - - 1.2
06/05:30am 11.2 7.3 7.0 75 2.0 SW 17 32 9 17 - - 1.0
06/05:00am 12.0 6.9 6.1 67 2.8 WSW 22 32 12 17 - - 1.0
06/04:44am 12.0 5.9 6.5 69 2.6 WSW 28 57 15 31 - - 1.0
06/04:30am 12.6 5.8 6.8 68 2.8 WSW 32 46 17 25 - - 1.0
06/04:00am 12.7 6.3 8.7 76 2.0 W 32 52 17 28 - - 1.0
06/03:56am 12.6 6.4 9.2 80 1.7 W 32 52 17 28 - - 1.0
06/03:30am 13.3 8.8 8.7 73 2.3 SW 22 33 12 18 - - 0.8
06/03:00am 13.7 10.8 8.3 70 2.7 SW 13 26 7 14 - - 0.8
06/02:30am 14.1 9.8 7.9 66 3.1 WSW 20 44 11 24 - - 0.8
06/02:00am 14.1 8.2 7.6 65 3.2 WSW 28 52 15 28 - - 0.8
06/01:30am 13.5 7.6 7.6 67 2.9 W 28 52 15 28 - - 0.8
06/01:09am 13.5 7.2 7.6 67 2.9 WNW 30 52 16 28 - - 0.8
06/01:00am 13.2 7.7 7.7 69 2.7 WSW 26 52 14 28 - - 0.8
06/12:45am 13.2 7.3 7.5 68 2.8 W 28 46 15 25 - - 0.6
06/12:30am 12.9 8.5 7.4 69 2.7 WSW 20 32 11 17 - - 0.6
06/12:03am 13.3 5.1 6.4 63 3.3 W 39 59 21 32 - - 0.6
06/12:02am 13.4 4.3 6.0 61 3.5 W 43 59 23 32 - - 0.6
06/12:00am 12.7 8.2 7.1 69 2.7 WSW 20 32 11 17 - - 0.6
 
Date/Time
EDT
Temp
°C
App
Temp
°C
Dew
Point
Rel
Hum
%
Delta-T
°C
Wind Press
QNH
hPa
Press
MSL
hPa
Rain
since 9 am
mm
Dir
 
Spd
km/h
Gust
km/h
Spd
kts
Gust
kts
05/11:31pm 12.9 6.8 6.7 66 3.0 WSW 28 50 15 27 - - 0.6
05/11:30pm 12.9 7.2 6.7 66 3.0 WSW 26 50 14 27 - - 0.6
05/11:00pm 12.7 8.0 6.2 64 3.1 W 20 28 11 15 - - 0.6
05/10:30pm 12.2 8.8 6.1 66 2.9 WSW 13 22 7 12 - - 0.6
05/10:00pm 12.1 7.8 5.2 62 3.2 W 17 28 9 15 - - 0.6
05/09:30pm 11.9 6.5 4.4 60 3.4 W 22 33 12 18 - - 0.6
05/09:00pm 11.5 6.6 4.2 61 3.3 W 19 32 10 17 - - 0.6
05/08:30pm 11.3 6.1 3.6 59 3.4 W 20 35 11 19 - - 0.6
05/08:00pm 10.9 5.9 3.7 61 3.2 W 19 33 10 18 - - 0.6
05/07:30pm 10.9 6.9 3.1 58 3.4 WSW 13 26 7 14 - - 0.6
05/07:00pm 11.1 7.7 4.2 62 3.1 W 11 20 6 11 - - 0.6
05/06:30pm 11.3 6.7 3.6 59 3.4 W 17 24 9 13 - - 0.6
05/06:00pm 11.7 4.6 1.3 49 4.4 WNW 28 41 15 22 - - 0.6
05/05:30pm 11.7 6.9 2.8 54 3.9 W 17 32 9 17 - - 0.6
05/05:00pm 11.9 4.2 2.2 51 4.2 WSW 32 52 17 28 - - 0.6
05/04:39pm 12.9 5.8 1.5 46 4.9 WSW 28 48 15 26 - - 0.6
05/04:30pm 12.9 8.7 1.8 47 4.8 SW 13 26 7 14 - - 0.6
05/04:00pm 11.7 6.3 2.5 53 4.0 SSW 20 37 11 20 - - 0.4
05/03:30pm 11.6 6.5 2.9 55 3.8 W 19 39 10 21 - - 0.4
05/03:00pm 11.4 6.4 6.3 71 2.4 WSW 22 33 12 18 - - 0.4
05/02:48pm 9.8 3.5 5.9 77 1.8 WSW 28 52 15 28 - - 0.2
05/02:30pm 13.1 8.4 3.3 51 4.4 W 17 30 9 16 - - 0.0
05/02:00pm 11.9 6.8 4.1 59 3.5 W 20 32 11 17 - - 0.0
05/01:48pm 10.7 4.0 3.4 60 3.2 SW 28 46 15 25 - - 0.0
05/01:30pm 12.7 6.0 1.5 46 4.8 WSW 26 44 14 24 - - 0.0
05/01:00pm 11.7 5.9 2.5 53 4.0 W 22 37 12 20 - - 0.0
05/12:36pm 11.1 4.0 5.5 68 2.6 WSW 32 50 17 27 - - 0.0
05/12:30pm 10.5 2.8 3.4 61 3.1 WSW 33 50 18 27 - - 0.0
05/12:25pm 11.4 4.5 2.7 55 3.8 SW 28 48 15 26 - - 0.0
05/12:00pm 10.0 4.8 3.3 63 2.9 W 20 37 11 20 - - 0.0
05/11:30am 10.7 6.4 3.1 59 3.3 W 15 28 8 15 - - 0.0
05/11:00am 10.0 6.2 1.9 57 3.4 W 11 20 6 11 - - 0.0
05/10:30am 10.0 5.6 2.5 59 3.2 WSW 15 28 8 15 - - 0.0
05/10:00am 8.3 3.6 3.1 70 2.2 W 17 28 9 15 - - 0.0
05/09:30am 9.2 3.2 0.9 56 3.4 W 22 35 12 19 - - 0.0
05/09:00am 8.3 2.1 2.3 66 2.5 W 24 32 13 17 - - 6.6
05/08:30am 7.5 4.5 4.0 78 1.5 SW 9 17 5 9 - - 6.6
05/08:00am 7.2 2.0 2.6 72 1.9 W 19 33 10 18 - - 6.6
05/07:30am 7.5 0.2 2.2 69 2.2 W 30 48 16 26 - - 6.6
05/07:29am 7.1 -0.4 3.6 78 1.5 W 32 48 17 26 - - 6.4
05/07:00am 6.2 4.0 5.3 94 0.4 W 6 9 3 5 - - 6.4
05/06:30am 6.7 4.5 5.3 91 0.6 SSW 6 9 3 5 - - 6.4
05/06:00am 7.6 2.6 3.6 76 1.7 WSW 19 37 10 20 - - 5.8
05/05:30am 6.9 2.9 4.8 86 0.9 WSW 15 22 8 12 - - 5.4
05/05:00am 7.2 3.7 5.4 88 0.8 SW 13 19 7 10 - - 5.0
05/04:30am 7.2 4.0 5.2 87 0.9 W 11 20 6 11 - - 5.0
05/04:00am 7.3 3.7 4.8 84 1.1 W 13 20 7 11 - - 4.8
05/03:30am 8.0 2.6 4.6 79 1.5 WSW 22 41 12 22 - - 3.6
05/03:00am 8.6 6.3 5.7 82 1.3 W 7 13 4 7 - - 2.8
05/02:30am 9.1 6.4 5.6 79 1.6 SW 9 13 5 7 - - 2.4
05/02:00am 8.7 7.6 6.8 88 0.9 W 2 6 1 3 - - 2.4
05/01:30am 9.7 5.6 6.0 78 1.7 WSW 17 30 9 16 - - 2.2
05/01:00am 9.9 6.7 6.7 80 1.5 WSW 13 24 7 13 - - 2.2
05/12:30am 10.3 6.4 7.1 80 1.5 WSW 17 30 9 16 - - 2.0
05/12:00am 10.8 6.6 7.3 79 1.7 WSW 19 24 10 13 - - 1.2
 
Date/Time
EDT
Temp
°C
App
Temp
°C
Dew
Point
Rel
Hum
%
Delta-T
°C
Wind Press
QNH
hPa
Press
MSL
hPa
Rain
since 9 am
mm
Dir
 
Spd
km/h
Gust
km/h
Spd
kts
Gust
kts
04/11:30pm 11.3 6.8 8.5 83 1.4 SW 22 39 12 21 - - 0.2
04/11:24pm 11.9 5.8 8.3 78 1.8 WSW 30 39 16 21 - - 0.2
04/11:00pm 13.5 11.2 7.4 66 3.0 WSW 9 15 5 8 - - 0.0
04/10:30pm 14.8 8.6 4.5 50 4.8 NW 26 46 14 25 - - 0.0
04/10:00pm 15.0 12.2 5.3 52 4.6 WNW 9 19 5 10 - - 0.0
04/09:30pm 15.1 11.2 5.4 52 4.6 NW 15 24 8 13 - - 0.0
04/09:00pm 15.0 11.6 6.1 55 4.3 WNW 13 20 7 11 - - 0.0
04/08:30pm 14.8 11.0 5.8 55 4.3 W 15 22 8 12 - - 0.0
04/08:00pm 15.2 10.6 6.3 55 4.3 W 20 46 11 25 - - 0.0
04/07:30pm 14.7 10.8 8.6 67 3.1 W 19 33 10 18 - - 0.0
04/07:00pm 16.1 11.6 6.3 52 4.8 WNW 19 35 10 19 - - 0.0
04/06:30pm 16.0 12.0 6.6 53 4.6 WNW 17 32 9 17 - - 0.0
04/06:00pm 16.2 11.8 6.4 52 4.8 WNW 19 35 10 19 - - 0.0
04/05:37pm 16.1 9.3 6.8 54 4.6 WNW 32 48 17 26 - - 0.0
04/05:30pm 16.3 8.6 7.0 54 4.6 W 37 72 20 39 - - 0.0
04/05:16pm 17.5 11.1 5.0 43 6.0 W 28 61 15 33 - - 0.0
04/05:00pm 17.8 11.9 4.0 40 6.5 W 24 39 13 21 - - 0.0
04/04:30pm 17.8 11.2 4.0 40 6.5 WNW 28 46 15 25 - - 0.0
04/04:00pm 18.0 11.8 6.3 46 5.8 W 28 48 15 26 - - 0.0
04/03:48pm 18.3 12.0 5.9 44 6.1 W 28 59 15 32 - - 0.0
04/03:30pm 19.1 14.7 6.5 43 6.3 WNW 19 70 10 38 - - 0.0
04/03:23pm 19.1 10.3 5.4 40 6.7 WNW 41 70 22 38 - - 0.0
04/03:00pm 19.4 14.7 6.2 42 6.6 WNW 20 39 11 21 - - 0.0
04/02:30pm 18.8 11.5 5.5 41 6.5 WNW 33 57 18 31 - - 0.0
04/02:00pm 19.2 12.5 8.2 49 5.7 WNW 33 57 18 31 - - 0.0
04/01:57pm 18.2 10.5 7.1 48 5.6 WNW 37 57 20 31 - - 0.0
04/01:55pm 18.3 10.6 7.2 48 5.6 W 37 54 20 29 - - 0.0
04/01:47pm 18.5 12.0 8.0 50 5.4 NW 32 54 17 29 - - 0.0
04/01:30pm 19.5 14.8 7.9 47 6.0 WNW 22 35 12 19 - - 0.0
04/01:00pm 18.4 12.1 7.3 48 5.6 WNW 30 48 16 26 - - 0.0
04/12:30pm 18.3 12.0 7.5 49 5.5 NW 30 57 16 31 - - 0.0
04/12:28pm 18.4 12.5 7.3 48 5.6 NW 28 48 15 26 - - 0.0
04/12:00pm 16.9 13.6 9.4 61 3.9 W 17 28 9 15 - - 0.0
04/11:30am 17.3 13.5 9.0 58 4.3 W 19 50 10 27 - - 0.0
04/11:00am 17.6 11.0 7.8 52 5.0 NW 32 69 17 37 - - 0.0
04/10:59am 17.6 11.1 8.0 53 4.9 NW 32 69 17 37 - - 0.0
04/10:39am 17.5 11.6 7.4 51 5.1 NW 28 50 15 27 - - 0.0
04/10:30am 17.5 12.5 7.9 53 4.9 NW 24 43 13 23 - - 0.0
04/10:06am 17.2 11.1 6.7 50 5.2 NW 28 54 15 29 - - 0.0
04/10:00am 17.2 11.5 6.5 49 5.3 NW 26 39 14 21 - - 0.0
04/09:33am 17.0 9.9 6.2 49 5.3 W 33 52 18 28 - - 0.0
04/09:30am 16.9 8.5 5.8 48 5.4 W 39 50 21 27 - - 0.0
04/09:06am 16.4 10.3 6.7 52 4.8 NW 28 50 15 27 - - 0.0
04/09:00am 15.9 11.0 6.8 54 4.5 NNW 22 43 12 23 - - 0.0
04/08:30am 15.8 11.2 6.4 53 4.6 WNW 20 56 11 30 - - 0.0
04/08:00am 15.4 11.0 6.4 55 4.4 NNW 19 33 10 18 - - 0.0
04/07:30am 14.6 12.3 7.3 61 3.6 W 9 17 5 9 - - 0.0
04/07:00am 14.7 11.5 6.7 58 3.9 WNW 13 22 7 12 - - 0.0
04/06:30am 14.4 10.9 7.1 61 3.6 NNW 15 26 8 14 - - 0.0
04/06:00am 14.6 11.2 5.8 55 4.2 NW 13 24 7 13 - - 0.0
04/05:30am 14.4 12.1 5.8 56 4.1 NNW 7 17 4 9 - - 0.0
04/05:00am 14.5 9.6 5.2 53 4.4 NNW 20 28 11 15 - - 0.0
04/04:30am 14.6 9.8 4.5 50 4.7 NW 19 44 10 24 - - 0.0
04/04:00am 14.6 9.8 4.5 50 4.7 WNW 19 39 10 21 - - 0.0
04/03:30am 14.2 10.5 4.5 52 4.5 WNW 13 24 7 13 - - 0.0
04/03:00am 13.8 12.3 5.0 55 4.1 W 2 17 1 9 - - 0.0
04/02:30am 13.8 10.9 4.5 53 4.3 NNE 9 13 5 7 - - 0.0
04/02:00am 12.9 10.4 4.9 58 3.7 NNE 7 13 4 7 - - 0.0
04/01:30am 13.0 10.5 4.5 56 3.9 NNE 7 13 4 7 - - 0.0
04/01:00am 13.5 10.3 3.2 49 4.6 NNW 9 20 5 11 - - 0.0
04/12:30am 13.1 9.5 3.0 50 4.5 NW 11 22 6 12 - - 0.0
04/12:00am 12.6 10.7 3.1 52 4.2 NNW 2 7 1 4 - - 0.0
 
Date/Time
EDT
Temp
°C
App
Temp
°C
Dew
Point
Rel
Hum
%
Delta-T
°C
Wind Press
QNH
hPa
Press
MSL
hPa
Rain
since 9 am
mm
Dir
 
Spd
km/h
Gust
km/h
Spd
kts
Gust
kts
03/11:30pm 12.5 10.6 2.7 51 4.3 NW 2 9 1 5 - - 0.0
03/11:00pm 13.6 9.9 2.2 46 5.0 N 11 28 6 15 - - 0.0
03/10:30pm 14.0 10.2 1.9 44 5.3 W 11 17 6 9 - - 0.0
03/10:00pm 13.1 9.6 3.5 52 4.3 SW 11 17 6 9 - - 0.0
03/09:30pm 13.3 9.7 2.7 48 4.7 WNW 11 15 6 8 - - 0.0
03/09:00pm 12.7 9.6 3.8 54 4.0 W 9 11 5 6 - - 0.0
03/08:30pm 14.5 11.2 2.6 44 5.3 SW 9 15 5 8 - - 0.0
03/08:00pm 15.0 11.3 2.5 43 5.6 WSW 11 17 6 9 - - 0.0

Other Formats:

Comma delimited format used in spreadsheet applications
http://www.bom.gov.au/fwo/IDT60801/IDT60801.95977.axf

JavaScript Object Notation format (JSON) in row-major order
http://www.bom.gov.au/fwo/IDT60801/IDT60801.95977.json